sensor_id;sensor_type;location;lat;lon;timestamp;temperature;humidity
51950;DHT22;37974;53.218;6.640;2023-06-22T00:00:46;17.40;99.90
51950;DHT22;37974;53.218;6.640;2023-06-22T00:04:19;17.30;99.90
51950;DHT22;37974;53.218;6.640;2023-06-22T00:06:47;17.30;99.90
51950;DHT22;37974;53.218;6.640;2023-06-22T00:09:37;17.10;99.90
51950;DHT22;37974;53.218;6.640;2023-06-22T00:12:18;16.90;99.90
51950;DHT22;37974;53.218;6.640;2023-06-22T00:15:37;16.90;99.90
51950;DHT22;37974;53.218;6.640;2023-06-22T00:24:38;16.80;99.90
51950;DHT22;37974;53.218;6.640;2023-06-22T00:30:35;16.70;99.90
51950;DHT22;37974;53.218;6.640;2023-06-22T00:33:27;16.80;99.90
51950;DHT22;37974;53.218;6.640;2023-06-22T00:40:19;16.80;99.90
51950;DHT22;37974;53.218;6.640;2023-06-22T00:42:53;16.60;99.90
51950;DHT22;37974;53.218;6.640;2023-06-22T00:45:42;16.70;99.90
51950;DHT22;37974;53.218;6.640;2023-06-22T00:49:06;16.40;99.90
51950;DHT22;37974;53.218;6.640;2023-06-22T00:51:47;16.60;99.90
51950;DHT22;37974;53.218;6.640;2023-06-22T00:58:58;16.60;99.90
51950;DHT22;37974;53.218;6.640;2023-06-22T01:04:49;16.50;99.90
51950;DHT22;37974;53.218;6.640;2023-06-22T01:11:27;16.30;99.90
51950;DHT22;37974;53.218;6.640;2023-06-22T01:21:04;16.30;99.90
51950;DHT22;37974;53.218;6.640;2023-06-22T01:36:22;16.20;99.90
51950;DHT22;37974;53.218;6.640;2023-06-22T01:42:18;16.10;99.90
51950;DHT22;37974;53.218;6.640;2023-06-22T01:45:50;16.10;99.90
51950;DHT22;37974;53.218;6.640;2023-06-22T01:52:39;15.90;99.90
51950;DHT22;37974;53.218;6.640;2023-06-22T01:55:29;16.00;99.90
51950;DHT22;37974;53.218;6.640;2023-06-22T01:58:22;16.00;99.90
51950;DHT22;37974;53.218;6.640;2023-06-22T02:08:06;16.00;99.90
51950;DHT22;37974;53.218;6.640;2023-06-22T02:11:11;16.00;99.90
51950;DHT22;37974;53.218;6.640;2023-06-22T02:17:03;16.00;99.90
51950;DHT22;37974;53.218;6.640;2023-06-22T02:20:31;15.90;99.90
51950;DHT22;37974;53.218;6.640;2023-06-22T02:26:42;15.90;99.90
51950;DHT22;37974;53.218;6.640;2023-06-22T02:29:49;16.00;99.90
51950;DHT22;37974;53.218;6.640;2023-06-22T02:39:45;16.00;99.90
51950;DHT22;37974;53.218;6.640;2023-06-22T02:43:03;16.00;99.90
51950;DHT22;37974;53.218;6.640;2023-06-22T02:46:08;16.00;99.90
51950;DHT22;37974;53.218;6.640;2023-06-22T03:02:00;15.90;99.90
51950;DHT22;37974;53.218;6.640;2023-06-22T03:08:02;15.80;99.90
51950;DHT22;37974;53.218;6.640;2023-06-22T03:10:54;15.70;99.90
51950;DHT22;37974;53.218;6.640;2023-06-22T03:14:10;15.70;99.90
51950;DHT22;37974;53.218;6.640;2023-06-22T03:17:45;15.70;99.90
51950;DHT22;37974;53.218;6.640;2023-06-22T03:24:07;15.90;99.90
51950;DHT22;37974;53.218;6.640;2023-06-22T03:27:14;15.70;99.90
51950;DHT22;37974;53.218;6.640;2023-06-22T03:30:27;15.80;99.90
51950;DHT22;37974;53.218;6.640;2023-06-22T03:36:19;15.90;99.90
51950;DHT22;37974;53.218;6.640;2023-06-22T03:43:02;15.80;99.90
51950;DHT22;37974;53.218;6.640;2023-06-22T03:52:24;15.90;99.90
51950;DHT22;37974;53.218;6.640;2023-06-22T03:55:19;15.60;99.90
51950;DHT22;37974;53.218;6.640;2023-06-22T04:01:19;16.00;99.90
51950;DHT22;37974;53.218;6.640;2023-06-22T04:04:25;16.10;99.90
51950;DHT22;37974;53.218;6.640;2023-06-22T04:07:37;16.10;99.90
51950;DHT22;37974;53.218;6.640;2023-06-22T04:10:51;16.40;99.90
51950;DHT22;37974;53.218;6.640;2023-06-22T04:17:29;16.10;99.90
51950;DHT22;37974;53.218;6.640;2023-06-22T04:24:13;16.10;99.90
51950;DHT22;37974;53.218;6.640;2023-06-22T04:27:13;16.40;99.90
51950;DHT22;37974;53.218;6.640;2023-06-22T04:30:21;16.40;99.90
51950;DHT22;37974;53.218;6.640;2023-06-22T04:36:51;16.50;99.90
51950;DHT22;37974;53.218;6.640;2023-06-22T04:40:35;16.60;99.90
51950;DHT22;37974;53.218;6.640;2023-06-22T04:43:20;16.70;99.90
51950;DHT22;37974;53.218;6.640;2023-06-22T04:46:14;16.70;99.90
51950;DHT22;37974;53.218;6.640;2023-06-22T04:49:12;16.80;99.90
51950;DHT22;37974;53.218;6.640;2023-06-22T04:52:30;16.90;99.90
51950;DHT22;37974;53.218;6.640;2023-06-22T04:55:27;17.00;99.90
51950;DHT22;37974;53.218;6.640;2023-06-22T04:58:21;17.10;99.90
51950;DHT22;37974;53.218;6.640;2023-06-22T05:01:31;17.20;99.90
51950;DHT22;37974;53.218;6.640;2023-06-22T05:04:12;17.30;99.90
51950;DHT22;37974;53.218;6.640;2023-06-22T05:06:47;17.50;99.90
51950;DHT22;37974;53.218;6.640;2023-06-22T05:09:38;17.60;99.90
51950;DHT22;37974;53.218;6.640;2023-06-22T05:12:17;17.70;99.90
51950;DHT22;37974;53.218;6.640;2023-06-22T05:15:08;17.90;99.90
51950;DHT22;37974;53.218;6.640;2023-06-22T05:18:21;18.00;99.90
51950;DHT22;37974;53.218;6.640;2023-06-22T05:21:27;18.20;99.90
51950;DHT22;37974;53.218;6.640;2023-06-22T05:24:11;18.30;99.90
51950;DHT22;37974;53.218;6.640;2023-06-22T05:27:17;18.40;99.90
51950;DHT22;37974;53.218;6.640;2023-06-22T05:30:10;18.50;99.90
51950;DHT22;37974;53.218;6.640;2023-06-22T05:33:27;18.50;99.90
51950;DHT22;37974;53.218;6.640;2023-06-22T05:36:20;18.70;99.90
51950;DHT22;37974;53.218;6.640;2023-06-22T05:45:46;19.00;99.90
51950;DHT22;37974;53.218;6.640;2023-06-22T05:49:43;19.10;99.90
51950;DHT22;37974;53.218;6.640;2023-06-22T05:55:03;19.30;99.90
51950;DHT22;37974;53.218;6.640;2023-06-22T05:58:37;19.40;99.90
51950;DHT22;37974;53.218;6.640;2023-06-22T06:01:57;19.50;99.90
51950;DHT22;37974;53.218;6.640;2023-06-22T06:05:04;19.50;99.90
51950;DHT22;37974;53.218;6.640;2023-06-22T06:08:23;19.60;99.90
51950;DHT22;37974;53.218;6.640;2023-06-22T06:11:04;19.70;99.90
51950;DHT22;37974;53.218;6.640;2023-06-22T06:13:50;19.80;99.90
51950;DHT22;37974;53.218;6.640;2023-06-22T06:16:56;19.30;99.90
51950;DHT22;37974;53.218;6.640;2023-06-22T06:19:54;19.90;99.90
51950;DHT22;37974;53.218;6.640;2023-06-22T06:23:53;20.10;99.90
51950;DHT22;37974;53.218;6.640;2023-06-22T06:27:16;20.30;99.90
51950;DHT22;37974;53.218;6.640;2023-06-22T06:36:47;20.60;99.90
51950;DHT22;37974;53.218;6.640;2023-06-22T06:39:42;20.80;99.90
51950;DHT22;37974;53.218;6.640;2023-06-22T06:48:44;21.30;99.90
51950;DHT22;37974;53.218;6.640;2023-06-22T06:51:13;21.30;99.90
51950;DHT22;37974;53.218;6.640;2023-06-22T06:54:10;21.10;99.90
51950;DHT22;37974;53.218;6.640;2023-06-22T06:56:36;21.50;99.90
51950;DHT22;37974;53.218;6.640;2023-06-22T06:59:02;21.40;99.90
51950;DHT22;37974;53.218;6.640;2023-06-22T07:01:28;21.40;99.90
51950;DHT22;37974;53.218;6.640;2023-06-22T07:03:59;21.50;99.90
51950;DHT22;37974;53.218;6.640;2023-06-22T07:06:26;21.50;99.90
51950;DHT22;37974;53.218;6.640;2023-06-22T07:08:55;21.50;99.90
51950;DHT22;37974;53.218;6.640;2023-06-22T07:11:21;21.60;99.90
51950;DHT22;37974;53.218;6.640;2023-06-22T07:13:47;21.70;99.90
51950;DHT22;37974;53.218;6.640;2023-06-22T07:16:21;21.90;99.90
51950;DHT22;37974;53.218;6.640;2023-06-22T07:19:29;22.10;99.90
51950;DHT22;37974;53.218;6.640;2023-06-22T07:25:19;22.40;99.90
51950;DHT22;37974;53.218;6.640;2023-06-22T07:28:47;22.40;99.90
51950;DHT22;37974;53.218;6.640;2023-06-22T07:31:35;22.40;99.90
51950;DHT22;37974;53.218;6.640;2023-06-22T07:36:06;22.50;99.90
51950;DHT22;37974;53.218;6.640;2023-06-22T07:42:02;22.70;99.90
51950;DHT22;37974;53.218;6.640;2023-06-22T07:44:45;22.70;99.90
51950;DHT22;37974;53.218;6.640;2023-06-22T07:47:41;22.70;99.90
51950;DHT22;37974;53.218;6.640;2023-06-22T07:53:20;22.70;99.90
51950;DHT22;37974;53.218;6.640;2023-06-22T07:57:49;22.80;99.90
51950;DHT22;37974;53.218;6.640;2023-06-22T08:00:02;22.90;99.90
51950;DHT22;37974;53.218;6.640;2023-06-22T08:02:48;23.00;99.90
51950;DHT22;37974;53.218;6.640;2023-06-22T08:06:00;23.10;99.90
51950;DHT22;37974;53.218;6.640;2023-06-22T08:08:56;23.20;99.90
51950;DHT22;37974;53.218;6.640;2023-06-22T08:11:37;23.30;99.90
51950;DHT22;37974;53.218;6.640;2023-06-22T08:14:20;23.40;99.90
51950;DHT22;37974;53.218;6.640;2023-06-22T08:17:39;23.30;99.90
51950;DHT22;37974;53.218;6.640;2023-06-22T08:20:26;23.50;99.90
51950;DHT22;37974;53.218;6.640;2023-06-22T08:23:43;23.50;99.90
51950;DHT22;37974;53.218;6.640;2023-06-22T08:26:35;23.70;99.90
51950;DHT22;37974;53.218;6.640;2023-06-22T08:29:40;23.80;99.90
51950;DHT22;37974;53.218;6.640;2023-06-22T08:32:52;24.00;99.90
51950;DHT22;37974;53.218;6.640;2023-06-22T08:38:50;24.30;99.90
51950;DHT22;37974;53.218;6.640;2023-06-22T08:41:32;24.40;99.90
51950;DHT22;37974;53.218;6.640;2023-06-22T08:44:17;24.50;99.90
51950;DHT22;37974;53.218;6.640;2023-06-22T08:46:52;24.40;99.90
51950;DHT22;37974;53.218;6.640;2023-06-22T08:49:29;24.50;99.90
51950;DHT22;37974;53.218;6.640;2023-06-22T08:55:33;24.60;99.90
51950;DHT22;37974;53.218;6.640;2023-06-22T08:58:25;24.70;99.90
51950;DHT22;37974;53.218;6.640;2023-06-22T09:04:54;24.80;99.90
51950;DHT22;37974;53.218;6.640;2023-06-22T09:07:29;24.90;99.90
51950;DHT22;37974;53.218;6.640;2023-06-22T09:10:16;24.90;99.90
51950;DHT22;37974;53.218;6.640;2023-06-22T09:13:32;25.00;99.90
51950;DHT22;37974;53.218;6.640;2023-06-22T09:16:18;25.00;99.90
51950;DHT22;37974;53.218;6.640;2023-06-22T09:19:19;24.90;99.90
51950;DHT22;37974;53.218;6.640;2023-06-22T09:22:57;24.80;99.90
51950;DHT22;37974;53.218;6.640;2023-06-22T09:25:56;24.90;99.90
51950;DHT22;37974;53.218;6.640;2023-06-22T09:28:55;24.90;99.90
51950;DHT22;37974;53.218;6.640;2023-06-22T09:32:06;25.00;99.90
51950;DHT22;37974;53.218;6.640;2023-06-22T09:35:06;25.00;99.90
51950;DHT22;37974;53.218;6.640;2023-06-22T09:38:25;25.20;99.90
51950;DHT22;37974;53.218;6.640;2023-06-22T09:44:45;25.40;99.90
51950;DHT22;37974;53.218;6.640;2023-06-22T09:47:20;25.60;99.90
51950;DHT22;37974;53.218;6.640;2023-06-22T09:53:18;25.80;99.90
51950;DHT22;37974;53.218;6.640;2023-06-22T09:56:07;25.80;99.90
51950;DHT22;37974;53.218;6.640;2023-06-22T09:59:11;25.90;99.90
51950;DHT22;37974;53.218;6.640;2023-06-22T10:05:18;26.20;99.90
51950;DHT22;37974;53.218;6.640;2023-06-22T10:08:33;26.30;99.90
51950;DHT22;37974;53.218;6.640;2023-06-22T10:11:19;26.50;99.90
51950;DHT22;37974;53.218;6.640;2023-06-22T10:17:02;26.40;99.90
51950;DHT22;37974;53.218;6.640;2023-06-22T10:19:58;26.50;99.90
51950;DHT22;37974;53.218;6.640;2023-06-22T10:22:35;26.70;99.90
51950;DHT22;37974;53.218;6.640;2023-06-22T10:25:07;26.80;99.90
51950;DHT22;37974;53.218;6.640;2023-06-22T10:27:58;26.90;99.90
51950;DHT22;37974;53.218;6.640;2023-06-22T10:30:29;27.10;99.90
51950;DHT22;37974;53.218;6.640;2023-06-22T10:33:08;26.80;99.90
51950;DHT22;37974;53.218;6.640;2023-06-22T10:43:27;26.30;99.90
51950;DHT22;37974;53.218;6.640;2023-06-22T11:53:06;27.00;99.90
51950;DHT22;37974;53.218;6.640;2023-06-22T13:15:55;25.70;99.90
51950;DHT22;37974;53.218;6.640;2023-06-22T13:21:37;25.60;99.90
51950;DHT22;37974;53.218;6.640;2023-06-22T13:24:26;25.60;99.90
51950;DHT22;37974;53.218;6.640;2023-06-22T13:27:09;25.60;99.90
51950;DHT22;37974;53.218;6.640;2023-06-22T13:32:23;25.60;99.90
51950;DHT22;37974;53.218;6.640;2023-06-22T13:38:28;25.40;99.90
51950;DHT22;37974;53.218;6.640;2023-06-22T13:41:26;25.30;99.90
51950;DHT22;37974;53.218;6.640;2023-06-22T13:43:57;25.30;99.90
51950;DHT22;37974;53.218;6.640;2023-06-22T13:46:26;25.20;99.90
51950;DHT22;37974;53.218;6.640;2023-06-22T13:49:23;25.40;99.90
51950;DHT22;37974;53.218;6.640;2023-06-22T13:52:16;25.20;99.90
51950;DHT22;37974;53.218;6.640;2023-06-22T13:55:05;25.20;99.90
51950;DHT22;37974;53.218;6.640;2023-06-22T14:01:06;24.90;99.90
51950;DHT22;37974;53.218;6.640;2023-06-22T14:03:46;24.80;99.90
51950;DHT22;37974;53.218;6.640;2023-06-22T14:06:38;24.80;99.90
51950;DHT22;37974;53.218;6.640;2023-06-22T14:09:16;24.80;99.90
51950;DHT22;37974;53.218;6.640;2023-06-22T14:14:49;24.50;99.90
51950;DHT22;37974;53.218;6.640;2023-06-22T14:17:27;24.40;99.90
51950;DHT22;37974;53.218;6.640;2023-06-22T14:20:55;24.40;99.90
51950;DHT22;37974;53.218;6.640;2023-06-22T14:23:41;24.30;99.90
51950;DHT22;37974;53.218;6.640;2023-06-22T14:30:29;24.10;99.90
51950;DHT22;37974;53.218;6.640;2023-06-22T14:33:28;24.10;99.90
51950;DHT22;37974;53.218;6.640;2023-06-22T14:36:31;24.00;99.90
51950;DHT22;37974;53.218;6.640;2023-06-22T14:39:50;24.10;99.90
51950;DHT22;37974;53.218;6.640;2023-06-22T14:43:42;24.10;99.90
51950;DHT22;37974;53.218;6.640;2023-06-22T14:46:14;23.90;99.90
51950;DHT22;37974;53.218;6.640;2023-06-22T14:49:18;23.90;99.90
51950;DHT22;37974;53.218;6.640;2023-06-22T14:55:46;23.70;99.90
51950;DHT22;37974;53.218;6.640;2023-06-22T14:58:37;23.70;99.90
51950;DHT22;37974;53.218;6.640;2023-06-22T15:05:01;23.60;99.90
51950;DHT22;37974;53.218;6.640;2023-06-22T15:07:27;23.50;99.90
51950;DHT22;37974;53.218;6.640;2023-06-22T15:09:53;23.50;99.90
51950;DHT22;37974;53.218;6.640;2023-06-22T15:12:18;23.50;99.90
51950;DHT22;37974;53.218;6.640;2023-06-22T15:14:44;23.50;99.90
51950;DHT22;37974;53.218;6.640;2023-06-22T15:17:10;23.50;99.90
51950;DHT22;37974;53.218;6.640;2023-06-22T15:19:36;23.40;99.90
51950;DHT22;37974;53.218;6.640;2023-06-22T15:22:05;23.40;99.90
51950;DHT22;37974;53.218;6.640;2023-06-22T15:24:34;23.30;99.90
51950;DHT22;37974;53.218;6.640;2023-06-22T15:27:03;23.30;99.90
51950;DHT22;37974;53.218;6.640;2023-06-22T15:29:29;23.10;99.90
51950;DHT22;37974;53.218;6.640;2023-06-22T15:31:59;23.00;99.90
51950;DHT22;37974;53.218;6.640;2023-06-22T15:34:25;23.00;99.90
51950;DHT22;37974;53.218;6.640;2023-06-22T15:36:51;22.90;99.90
51950;DHT22;37974;53.218;6.640;2023-06-22T15:39:17;22.90;99.90
51950;DHT22;37974;53.218;6.640;2023-06-22T15:41:43;22.80;99.90
51950;DHT22;37974;53.218;6.640;2023-06-22T15:44:09;22.70;99.90
51950;DHT22;37974;53.218;6.640;2023-06-22T15:46:35;22.70;99.90
51950;DHT22;37974;53.218;6.640;2023-06-22T15:49:01;22.70;99.90
51950;DHT22;37974;53.218;6.640;2023-06-22T15:51:27;22.70;99.90
51950;DHT22;37974;53.218;6.640;2023-06-22T15:54:00;22.70;99.90
51950;DHT22;37974;53.218;6.640;2023-06-22T15:56:36;22.60;99.90
51950;DHT22;37974;53.218;6.640;2023-06-22T15:59:04;22.60;99.90
51950;DHT22;37974;53.218;6.640;2023-06-22T16:01:31;22.60;99.90
51950;DHT22;37974;53.218;6.640;2023-06-22T16:03:57;22.60;99.90
51950;DHT22;37974;53.218;6.640;2023-06-22T16:06:22;22.60;99.90
51950;DHT22;37974;53.218;6.640;2023-06-22T16:08:48;22.50;99.90
51950;DHT22;37974;53.218;6.640;2023-06-22T16:11:14;22.50;99.90
51950;DHT22;37974;53.218;6.640;2023-06-22T16:13:40;22.40;99.90
51950;DHT22;37974;53.218;6.640;2023-06-22T16:16:06;22.50;99.90
51950;DHT22;37974;53.218;6.640;2023-06-22T16:18:32;22.50;99.90
51950;DHT22;37974;53.218;6.640;2023-06-22T16:20:58;22.50;99.90
51950;DHT22;37974;53.218;6.640;2023-06-22T16:23:24;22.50;99.90
51950;DHT22;37974;53.218;6.640;2023-06-22T16:25:50;22.50;99.90
51950;DHT22;37974;53.218;6.640;2023-06-22T16:28:15;22.50;99.90
51950;DHT22;37974;53.218;6.640;2023-06-22T16:30:41;22.40;99.90
51950;DHT22;37974;53.218;6.640;2023-06-22T16:33:07;22.40;99.90
51950;DHT22;37974;53.218;6.640;2023-06-22T16:35:33;22.30;99.90
51950;DHT22;37974;53.218;6.640;2023-06-22T16:37:59;22.20;99.90
51950;DHT22;37974;53.218;6.640;2023-06-22T16:40:27;22.10;99.90
51950;DHT22;37974;53.218;6.640;2023-06-22T16:43:11;22.10;99.90
51950;DHT22;37974;53.218;6.640;2023-06-22T16:45:37;22.00;99.90
51950;DHT22;37974;53.218;6.640;2023-06-22T16:48:03;21.90;99.90
51950;DHT22;37974;53.218;6.640;2023-06-22T16:50:29;21.90;99.90
51950;DHT22;37974;53.218;6.640;2023-06-22T16:52:55;21.80;99.90
51950;DHT22;37974;53.218;6.640;2023-06-22T16:55:21;21.80;99.90
51950;DHT22;37974;53.218;6.640;2023-06-22T16:57:51;21.70;99.90
51950;DHT22;37974;53.218;6.640;2023-06-22T17:00:17;21.60;99.90
51950;DHT22;37974;53.218;6.640;2023-06-22T17:02:47;21.60;99.90
51950;DHT22;37974;53.218;6.640;2023-06-22T17:05:14;21.60;99.90
51950;DHT22;37974;53.218;6.640;2023-06-22T17:07:45;21.40;99.90
51950;DHT22;37974;53.218;6.640;2023-06-22T17:10:13;21.40;99.90
51950;DHT22;37974;53.218;6.640;2023-06-22T17:12:40;21.40;99.90
51950;DHT22;37974;53.218;6.640;2023-06-22T17:15:09;21.30;99.90
51950;DHT22;37974;53.218;6.640;2023-06-22T17:17:39;21.30;99.90
51950;DHT22;37974;53.218;6.640;2023-06-22T17:20:05;21.30;99.90
51950;DHT22;37974;53.218;6.640;2023-06-22T17:22:32;21.20;99.90
51950;DHT22;37974;53.218;6.640;2023-06-22T17:25:02;21.20;99.90
51950;DHT22;37974;53.218;6.640;2023-06-22T17:27:29;21.10;99.90
51950;DHT22;37974;53.218;6.640;2023-06-22T17:30:08;21.10;99.90
51950;DHT22;37974;53.218;6.640;2023-06-22T17:32:34;21.10;99.90
51950;DHT22;37974;53.218;6.640;2023-06-22T17:35:02;21.10;99.90
51950;DHT22;37974;53.218;6.640;2023-06-22T17:37:50;21.10;99.90
51950;DHT22;37974;53.218;6.640;2023-06-22T17:40:20;21.10;99.90
51950;DHT22;37974;53.218;6.640;2023-06-22T17:43:02;21.00;99.90
51950;DHT22;37974;53.218;6.640;2023-06-22T17:45:40;21.00;99.90
51950;DHT22;37974;53.218;6.640;2023-06-22T17:48:08;20.90;99.90
51950;DHT22;37974;53.218;6.640;2023-06-22T17:50:44;20.90;99.90
51950;DHT22;37974;53.218;6.640;2023-06-22T17:53:13;20.90;99.90
51950;DHT22;37974;53.218;6.640;2023-06-22T17:55:42;20.80;99.90
51950;DHT22;37974;53.218;6.640;2023-06-22T17:58:08;20.80;99.90
51950;DHT22;37974;53.218;6.640;2023-06-22T18:00:35;20.80;99.90
51950;DHT22;37974;53.218;6.640;2023-06-22T18:03:13;20.70;99.90
51950;DHT22;37974;53.218;6.640;2023-06-22T18:05:45;20.70;99.90
51950;DHT22;37974;53.218;6.640;2023-06-22T18:08:13;20.60;99.90
51950;DHT22;37974;53.218;6.640;2023-06-22T18:10:42;20.60;99.90
51950;DHT22;37974;53.218;6.640;2023-06-22T18:13:11;20.50;99.90
51950;DHT22;37974;53.218;6.640;2023-06-22T18:15:44;20.40;99.90
51950;DHT22;37974;53.218;6.640;2023-06-22T18:18:11;20.40;99.90
51950;DHT22;37974;53.218;6.640;2023-06-22T18:20:50;20.30;99.90
51950;DHT22;37974;53.218;6.640;2023-06-22T18:23:43;20.30;99.90
51950;DHT22;37974;53.218;6.640;2023-06-22T18:26:24;20.30;99.90
51950;DHT22;37974;53.218;6.640;2023-06-22T19:16:28;19.60;99.90
51950;DHT22;37974;53.218;6.640;2023-06-22T19:18:54;19.90;99.90
51950;DHT22;37974;53.218;6.640;2023-06-22T19:21:24;19.50;99.90
51950;DHT22;37974;53.218;6.640;2023-06-22T19:23:51;19.50;99.90
51950;DHT22;37974;53.218;6.640;2023-06-22T19:26:18;19.50;99.90
51950;DHT22;37974;53.218;6.640;2023-06-22T19:31:11;19.40;99.90
51950;DHT22;37974;53.218;6.640;2023-06-22T19:36:26;19.30;99.90
51950;DHT22;37974;53.218;6.640;2023-06-22T19:38:59;19.30;99.90
51950;DHT22;37974;53.218;6.640;2023-06-22T19:41:31;19.30;99.90
51950;DHT22;37974;53.218;6.640;2023-06-22T19:44:06;19.30;99.90
51950;DHT22;37974;53.218;6.640;2023-06-22T19:46:48;19.30;99.90
51950;DHT22;37974;53.218;6.640;2023-06-22T19:54:20;19.20;99.90
51950;DHT22;37974;53.218;6.640;2023-06-22T20:03:00;19.10;99.90
51950;DHT22;37974;53.218;6.640;2023-06-22T20:08:03;19.10;99.90
51950;DHT22;37974;53.218;6.640;2023-06-22T20:10:41;19.10;99.90
51950;DHT22;37974;53.218;6.640;2023-06-22T20:13:20;19.10;99.90
51950;DHT22;37974;53.218;6.640;2023-06-22T20:23:01;19.00;99.90
51950;DHT22;37974;53.218;6.640;2023-06-22T20:25:40;19.00;99.90
51950;DHT22;37974;53.218;6.640;2023-06-22T20:28:13;18.90;99.90
51950;DHT22;37974;53.218;6.640;2023-06-22T20:31:01;18.90;99.90
51950;DHT22;37974;53.218;6.640;2023-06-22T20:33:36;18.80;99.90
51950;DHT22;37974;53.218;6.640;2023-06-22T20:36:07;18.80;99.90
51950;DHT22;37974;53.218;6.640;2023-06-22T20:38:36;18.80;99.90
51950;DHT22;37974;53.218;6.640;2023-06-22T20:41:04;18.80;99.90
51950;DHT22;37974;53.218;6.640;2023-06-22T20:48:42;18.80;99.90
51950;DHT22;37974;53.218;6.640;2023-06-22T20:51:08;18.70;99.90
51950;DHT22;37974;53.218;6.640;2023-06-22T20:53:34;18.70;99.90
51950;DHT22;37974;53.218;6.640;2023-06-22T20:56:00;18.70;99.90
51950;DHT22;37974;53.218;6.640;2023-06-22T20:58:26;18.40;99.90
51950;DHT22;37974;53.218;6.640;2023-06-22T21:00:52;18.70;99.90
51950;DHT22;37974;53.218;6.640;2023-06-22T21:03:27;18.70;99.90
51950;DHT22;37974;53.218;6.640;2023-06-22T21:05:53;18.60;99.90
51950;DHT22;37974;53.218;6.640;2023-06-22T21:13:41;18.70;99.90
51950;DHT22;37974;53.218;6.640;2023-06-22T22:01:05;18.50;99.90
51950;DHT22;37974;53.218;6.640;2023-06-22T22:03:57;18.50;99.90
51950;DHT22;37974;53.218;6.640;2023-06-22T22:06:26;18.40;99.90
